Time;durP1;ratioP1;P1;durP2;ratioP2;P2;SDS_P1;SDS_P2;PMS_P1;PMS_P2;Temp;Humidity;BMP_temperature;BMP_pressure;BME280_temperature;BME280_humidity;BME280_pressure;Samples;Min_cycle;Max_cycle;Signal;HPM_P1;HPM_P2
2021/10/07 00:02:18;;;;;;;16.45;13.73;;;;;;;8.54;100.00;101640.53;5010804;28;20058;-86
2021/10/07 00:04:46;;;;;;;22.25;13.85;;;;;;;8.41;100.00;101636.59;5007318;28;20080;-83
2021/10/07 00:07:14;;;;;;;20.20;13.23;;;;;;;8.52;100.00;101647.63;5010766;28;20044;-86
2021/10/07 00:09:41;;;;;;;18.52;13.50;;;;;;;8.72;100.00;101652.16;4993194;28;20045;-85
2021/10/07 00:12:09;;;;;;;17.50;13.35;;;;;;;8.52;100.00;101650.25;4998411;28;20456;-86
2021/10/07 00:14:36;;;;;;;17.33;12.77;;;;;;;8.60;100.00;101656.94;4991673;28;20060;-84
2021/10/07 00:17:03;;;;;;;18.10;13.27;;;;;;;8.40;100.00;101659.38;5009712;28;20042;-83
2021/10/07 00:19:31;;;;;;;17.98;12.38;;;;;;;8.79;100.00;101651.06;4992635;28;20056;-85
2021/10/07 00:21:58;;;;;;;14.73;12.35;;;;;;;8.74;100.00;101653.00;4980383;28;20048;-82
2021/10/07 00:24:26;;;;;;;16.05;12.18;;;;;;;8.47;100.00;101657.41;4989792;28;21300;-86
2021/10/07 00:26:53;;;;;;;18.80;13.23;;;;;;;8.56;100.00;101659.72;4997509;28;20056;-84
2021/10/07 00:31:55;;;;;;;18.05;14.00;;;;;;;8.35;100.00;101656.00;5013071;28;20499;-83
2021/10/07 00:34:49;;;;;;;13.98;11.52;;;;;;;8.59;100.00;101655.22;5008069;28;20056;-85
2021/10/07 00:39:02;;;;;;;12.07;10.77;;;;;;;8.83;100.00;101650.03;4999093;28;20422;-85
2021/10/07 00:40:16;;;;;;;19.45;13.68;;;;;;;8.42;100.00;101652.31;5010121;28;20050;-85
2021/10/07 00:42:44;;;;;;;19.63;14.98;;;;;;;8.27;100.00;101660.66;4998504;28;20049;-85
2021/10/07 00:45:15;;;;;;;20.27;14.82;;;;;;;8.12;100.00;101655.00;5008419;28;20054;-89
2021/10/07 00:47:42;;;;;;;18.10;13.60;;;;;;;8.32;100.00;101662.22;4993340;28;20075;-86
2021/10/07 00:50:10;;;;;;;18.73;14.80;;;;;;;8.22;100.00;101662.56;4990930;28;20041;-84
2021/10/07 00:52:37;;;;;;;23.33;14.02;;;;;;;8.43;100.00;101668.91;5007953;28;20380;-86
2021/10/07 00:55:07;;;;;;;20.30;13.93;;;;;;;8.55;100.00;101669.34;5004967;28;20141;-85
2021/10/07 00:57:35;;;;;;;17.30;13.38;;;;;;;8.54;100.00;101667.63;4996262;28;20053;-87
2021/10/07 01:00:03;;;;;;;18.33;13.38;;;;;;;8.32;100.00;101671.84;4987920;28;20056;-83
2021/10/07 01:02:30;;;;;;;15.48;11.93;;;;;;;8.41;100.00;101671.56;4993780;28;20053;-85
2021/10/07 01:04:58;;;;;;;20.48;13.40;;;;;;;8.35;100.00;101674.38;5011537;28;20041;-84
2021/10/07 01:07:25;;;;;;;17.33;12.98;;;;;;;8.34;100.00;101670.91;5008543;28;20045;-85
2021/10/07 01:09:54;;;;;;;19.52;13.32;;;;;;;8.43;100.00;101674.16;5019294;28;20101;-86
2021/10/07 01:12:21;;;;;;;17.55;12.70;;;;;;;8.54;100.00;101678.13;5018082;28;21604;-85
2021/10/07 01:14:58;;;;;;;19.33;12.48;;;;;;;8.72;100.00;101675.78;5019868;28;20118;-86
2021/10/07 01:17:28;;;;;;;17.25;13.13;;;;;;;8.40;100.00;101675.13;5029512;28;20076;-84
2021/10/07 01:19:57;;;;;;;16.08;13.45;;;;;;;8.17;100.00;101681.06;5003380;28;20505;-85
2021/10/07 01:22:26;;;;;;;19.10;13.55;;;;;;;7.99;100.00;101677.28;5017039;28;20414;-86
2021/10/07 01:24:55;;;;;;;17.70;12.98;;;;;;;7.90;100.00;101682.81;4971297;28;20045;-86
2021/10/07 01:27:24;;;;;;;22.95;14.60;;;;;;;7.77;100.00;101682.31;4976437;28;20333;-85
2021/10/07 01:29:57;;;;;;;20.30;14.18;;;;;;;8.06;100.00;101680.53;5006647;28;20067;-85
2021/10/07 01:32:24;;;;;;;17.83;14.60;;;;;;;7.89;100.00;101678.47;5007346;28;20054;-84
2021/10/07 01:34:52;;;;;;;18.88;14.85;;;;;;;7.73;100.00;101685.06;4989437;28;20401;-85
2021/10/07 01:37:19;;;;;;;18.92;14.27;;;;;;;7.93;100.00;101680.09;5009121;28;20055;-86
2021/10/07 01:39:47;;;;;;;18.17;13.13;;;;;;;8.22;100.00;101678.31;5004980;28;20054;-85
2021/10/07 01:42:14;;;;;;;20.38;14.23;;;;;;;8.27;100.00;101689.50;5010979;28;20050;-88
2021/10/07 01:44:41;;;;;;;19.10;13.75;;;;;;;8.06;100.00;101680.53;5004385;28;20053;-85
2021/10/07 01:47:09;;;;;;;16.63;14.32;;;;;;;7.86;100.00;101691.66;4996453;28;20064;-88
2021/10/07 01:49:36;;;;;;;20.77;13.48;;;;;;;7.97;100.00;101689.59;5005104;28;20042;-84
2021/10/07 01:52:04;;;;;;;19.20;13.35;;;;;;;8.04;100.00;101698.09;4992135;28;20068;-85
2021/10/07 01:54:32;;;;;;;16.27;13.40;;;;;;;7.97;100.00;101704.44;4975015;28;20046;-82
2021/10/07 01:57:00;;;;;;;24.23;14.98;;;;;;;7.80;100.00;101702.34;4972927;28;20042;-83
2021/10/07 01:59:27;;;;;;;21.15;13.85;;;;;;;7.66;100.00;101694.03;5000842;28;20944;-84
2021/10/07 02:01:54;;;;;;;17.73;12.70;;;;;;;7.87;100.00;101706.47;5014963;28;20473;-86
2021/10/07 02:04:22;;;;;;;16.50;13.45;;;;;;;8.02;100.00;101703.41;4992757;28;20070;-83
2021/10/07 02:06:49;;;;;;;17.73;12.60;;;;;;;8.17;100.00;101704.69;5007162;28;20034;-85
2021/10/07 02:09:17;;;;;;;17.23;13.23;;;;;;;8.29;100.00;101713.94;5008598;28;20096;-84
2021/10/07 02:11:44;;;;;;;17.52;12.65;;;;;;;8.15;100.00;101711.75;4994315;28;20061;-85
2021/10/07 02:14:12;;;;;;;17.52;13.00;;;;;;;7.96;100.00;101719.31;4997743;28;20044;-84
2021/10/07 02:16:39;;;;;;;17.27;14.57;;;;;;;7.77;100.00;101718.16;5011692;28;20514;-88
2021/10/07 02:19:07;;;;;;;17.73;14.45;;;;;;;7.69;100.00;101728.00;4994715;28;20060;-88
2021/10/07 02:21:34;;;;;;;22.88;12.88;;;;;;;7.74;100.00;101726.97;5012377;28;20466;-86
2021/10/07 02:24:04;;;;;;;19.83;14.40;;;;;;;7.76;100.00;101740.91;5011173;28;20393;-88
2021/10/07 02:26:31;;;;;;;14.73;13.20;;;;;;;7.82;100.00;101738.09;4993531;28;20060;-86
2021/10/07 02:28:59;;;;;;;23.35;14.07;;;;;;;7.93;100.00;101743.03;5010354;28;20070;-89
2021/10/07 02:31:26;;;;;;;18.83;13.25;;;;;;;7.92;100.00;101736.03;4996805;28;20051;-85
2021/10/07 02:33:54;;;;;;;19.65;14.65;;;;;;;7.77;100.00;101744.38;5009763;28;20380;-86
2021/10/07 02:36:23;;;;;;;18.55;13.82;;;;;;;7.67;100.00;101748.16;5011028;28;20041;-84
2021/10/07 02:38:50;;;;;;;19.33;14.57;;;;;;;7.84;100.00;101751.16;5011198;28;21560;-84
2021/10/07 02:41:18;;;;;;;20.50;14.50;;;;;;;7.69;100.00;101749.81;5011467;28;20056;-87
2021/10/07 02:43:45;;;;;;;17.40;14.35;;;;;;;7.81;100.00;101756.50;5011034;28;20076;-84
2021/10/07 02:46:13;;;;;;;18.27;14.02;;;;;;;7.88;100.00;101760.66;4992740;28;20049;-83
2021/10/07 02:48:42;;;;;;;19.98;15.20;;;;;;;7.65;100.00;101761.31;4984934;28;20045;-86
2021/10/07 02:51:11;;;;;;;16.75;11.60;;;;;;;7.88;100.00;101760.66;4979058;28;20050;-85
2021/10/07 02:53:38;;;;;;;17.05;12.82;;;;;;;8.09;100.00;101762.63;4995616;28;20060;-85
2021/10/07 02:56:06;;;;;;;21.00;13.27;;;;;;;7.98;100.00;101763.88;4993629;28;20042;-87
2021/10/07 02:58:34;;;;;;;20.13;13.98;;;;;;;7.79;100.00;101759.16;4996507;28;20054;-87
2021/10/07 03:01:01;;;;;;;15.77;13.35;;;;;;;7.73;100.00;101758.47;5007565;28;20046;-80
2021/10/07 03:03:29;;;;;;;15.00;12.48;;;;;;;7.70;100.00;101766.41;5012398;28;20147;-86
2021/10/07 03:05:57;;;;;;;17.45;13.82;;;;;;;7.69;100.00;101769.94;4995250;28;20054;-81
2021/10/07 03:08:27;;;;;;;17.95;12.98;;;;;;;7.79;100.00;101772.28;5009130;28;20724;-85
2021/10/07 03:10:56;;;;;;;19.38;12.50;;;;;;;7.80;100.00;101768.75;5008681;28;20037;-84
2021/10/07 03:13:23;;;;;;;21.08;14.15;;;;;;;7.79;100.00;101767.03;5016681;28;20047;-81
2021/10/07 03:15:50;;;;;;;26.73;13.77;;;;;;;7.67;100.00;101775.25;5007490;28;20509;-85
2021/10/07 03:18:18;;;;;;;18.73;13.05;;;;;;;7.55;100.00;101779.06;5011914;28;20056;-86
2021/10/07 03:20:45;;;;;;;22.75;14.57;;;;;;;7.47;100.00;101775.78;5009212;28;20046;-84
2021/10/07 03:23:13;;;;;;;19.55;14.82;;;;;;;7.42;100.00;101779.44;4977283;28;20403;-84
2021/10/07 03:25:40;;;;;;;20.08;15.30;;;;;;;7.22;100.00;101785.22;5009009;28;20054;-86
2021/10/07 03:28:08;;;;;;;19.67;16.58;;;;;;;7.07;100.00;101784.72;4980863;28;20056;-86
2021/10/07 03:30:35;;;;;;;24.13;16.65;;;;;;;7.03;100.00;101782.22;4989370;28;20056;-87
2021/10/07 03:33:04;;;;;;;34.05;17.27;;;;;;;7.06;100.00;101790.84;5012288;28;20060;-88
2021/10/07 03:35:32;;;;;;;25.50;16.73;;;;;;;7.19;100.00;101795.75;4975158;28;20068;-82
2021/10/07 03:38:00;;;;;;;21.25;16.55;;;;;;;7.40;100.00;101795.19;4993582;28;20064;-87
2021/10/07 03:40:29;;;;;;;21.77;15.88;;;;;;;7.43;100.00;101792.50;4972945;28;20400;-85
2021/10/07 03:42:56;;;;;;;18.42;15.40;;;;;;;7.29;100.00;101803.31;4981091;28;20360;-86
2021/10/07 03:45:24;;;;;;;21.58;16.48;;;;;;;7.32;100.00;101800.63;5006798;28;20052;-87
2021/10/07 03:47:51;;;;;;;20.95;16.70;;;;;;;7.19;100.00;101809.72;5011199;28;20052;-87
2021/10/07 03:50:19;;;;;;;24.15;15.00;;;;;;;7.40;100.00;101816.16;5008165;28;20068;-84
2021/10/07 03:52:46;;;;;;;18.50;14.00;;;;;;;7.57;100.00;101813.94;5015609;28;20376;-84
2021/10/07 03:55:14;;;;;;;21.40;14.00;;;;;;;7.55;100.00;101815.72;4986152;28;20544;-82
2021/10/07 03:57:41;;;;;;;19.15;12.73;;;;;;;7.61;100.00;101820.81;4995018;28;20382;-85
2021/10/07 04:00:10;;;;;;;19.83;13.20;;;;;;;7.58;100.00;101823.53;5007345;28;20408;-83
2021/10/07 04:02:39;;;;;;;20.70;14.80;;;;;;;7.36;100.00;101819.75;4979207;28;20057;-81
2021/10/07 04:05:06;;;;;;;20.60;13.40;;;;;;;7.52;100.00;101828.06;4993284;28;20041;-87
2021/10/07 04:07:34;;;;;;;16.13;12.48;;;;;;;7.74;100.00;101825.72;4997175;28;20042;-84
2021/10/07 04:10:02;;;;;;;16.80;12.98;;;;;;;7.56;100.00;101824.44;4990020;28;20053;-85
2021/10/07 04:12:29;;;;;;;21.13;14.27;;;;;;;7.32;100.00;101831.22;4995554;28;20510;-83
2021/10/07 04:14:56;;;;;;;21.50;13.93;;;;;;;7.17;100.00;101827.25;5005521;28;20475;-83
2021/10/07 04:17:24;;;;;;;18.35;13.95;;;;;;;7.12;100.00;101830.88;5005480;28;20046;-83
2021/10/07 04:19:51;;;;;;;26.83;14.23;;;;;;;7.17;100.00;101835.09;5005167;28;20068;-81
2021/10/07 04:22:19;;;;;;;20.48;13.85;;;;;;;7.23;100.00;101839.31;5008903;28;20432;-85
2021/10/07 04:24:46;;;;;;;17.83;13.65;;;;;;;7.48;100.00;101835.16;4989141;28;20571;-86
2021/10/07 04:27:17;;;;;;;15.13;13.10;;;;;;;7.46;100.00;101842.19;5007578;28;20045;-83
2021/10/07 04:29:44;;;;;;;19.38;12.80;;;;;;;7.54;100.00;101842.00;5005975;28;20066;-90
2021/10/07 04:32:12;;;;;;;21.67;13.38;;;;;;;7.53;100.00;101841.13;4991486;28;20049;-84
2021/10/07 04:34:39;;;;;;;17.13;12.73;;;;;;;7.41;100.00;101851.06;5010054;28;20045;-86
2021/10/07 04:37:07;;;;;;;17.05;12.95;;;;;;;7.47;100.00;101850.91;5012996;28;20038;-85
2021/10/07 04:39:34;;;;;;;17.27;12.93;;;;;;;7.28;100.00;101859.25;4997334;28;20510;-88
2021/10/07 04:42:03;;;;;;;16.30;12.45;;;;;;;7.52;100.00;101863.00;4994590;28;20357;-79
2021/10/07 04:44:30;;;;;;;20.25;11.35;;;;;;;7.72;100.00;101870.31;5013052;28;20054;-88
2021/10/07 04:46:59;;;;;;;31.45;18.33;;;;;;;7.56;100.00;101864.63;5011371;28;20076;-86
2021/10/07 04:49:26;;;;;;;18.38;14.10;;;;;;;7.32;100.00;101871.38;4992357;28;20061;-90
2021/10/07 04:51:54;;;;;;;24.05;14.73;;;;;;;7.31;100.00;101880.13;5005148;28;20053;-89
2021/10/07 04:54:23;;;;;;;19.25;13.20;;;;;;;7.56;100.00;101876.88;4991933;28;20041;-86
2021/10/07 04:56:51;;;;;;;19.48;10.95;;;;;;;7.89;100.00;101875.09;4996788;28;20052;-87
2021/10/07 04:59:19;;;;;;;16.25;11.68;;;;;;;7.66;100.00;101885.38;5014596;28;20033;-84
2021/10/07 05:01:50;;;;;;;22.75;12.30;;;;;;;7.41;100.00;101891.22;5005475;28;20060;-83
2021/10/07 05:04:18;;;;;;;14.80;11.90;;;;;;;7.30;100.00;101883.66;4996020;28;20105;-80
2021/10/07 05:06:48;;;;;;;19.88;12.73;;;;;;;7.49;100.00;101891.03;5014841;28;20065;-82
2021/10/07 05:09:17;;;;;;;22.05;12.63;;;;;;;7.40;100.00;101894.75;5016776;28;20052;-80
2021/10/07 05:11:46;;;;;;;24.15;13.55;;;;;;;7.39;100.00;101889.56;5024879;28;20140;-84
2021/10/07 05:14:16;;;;;;;17.83;11.15;;;;;;;7.74;100.00;101883.38;5023106;28;20129;-83
2021/10/07 05:16:51;;;;;;;20.15;11.55;;;;;;;7.65;100.00;101886.25;5007586;28;20404;-84
2021/10/07 05:19:19;;;;;;;22.55;12.32;;;;;;;7.40;100.00;101893.91;5003337;28;20136;-82
2021/10/07 05:21:51;;;;;;;17.92;12.80;;;;;;;7.32;100.00;101886.22;5021458;28;20057;-79
2021/10/07 05:24:26;;;;;;;21.35;12.57;;;;;;;7.20;100.00;101891.75;5020715;28;20061;-87
2021/10/07 05:26:58;;;;;;;18.40;13.43;;;;;;;7.08;100.00;101899.03;5015536;28;20041;-85
2021/10/07 05:29:26;;;;;;;21.20;12.68;;;;;;;7.02;100.00;101898.31;5030297;28;20042;-82
2021/10/07 05:31:53;;;;;;;24.27;13.25;;;;;;;7.05;100.00;101916.56;5008410;28;20057;-79
2021/10/07 05:34:21;;;;;;;17.95;13.32;;;;;;;7.34;100.00;101911.50;5005722;28;20263;-82
2021/10/07 05:36:48;;;;;;;24.42;13.45;;;;;;;7.38;100.00;101922.72;5004868;28;20331;-84
2021/10/07 05:39:15;;;;;;;20.85;13.07;;;;;;;7.27;100.00;101919.53;5008054;28;20056;-83
2021/10/07 05:41:43;;;;;;;28.98;13.48;;;;;;;7.32;100.00;101917.66;5009853;28;20507;-81
2021/10/07 05:44:10;;;;;;;24.63;13.02;;;;;;;7.33;100.00;101929.84;5008745;28;20489;-82
2021/10/07 05:46:38;;;;;;;26.42;12.38;;;;;;;7.60;100.00;101929.16;5009731;28;20054;-78
2021/10/07 05:49:06;;;;;;;20.65;11.43;;;;;;;7.79;100.00;101928.66;5009650;28;20060;-80
2021/10/07 05:51:33;;;;;;;21.67;12.05;;;;;;;7.65;100.00;101926.41;5010672;28;20044;-79
2021/10/07 05:54:01;;;;;;;21.38;12.75;;;;;;;7.64;100.00;101932.56;5004070;28;20128;-79
2021/10/07 05:56:28;;;;;;;21.95;12.52;;;;;;;7.68;100.00;101936.81;5009411;28;20072;-79
2021/10/07 05:58:57;;;;;;;17.23;12.35;;;;;;;7.66;100.00;101936.03;5010325;28;20058;-84
2021/10/07 06:01:25;;;;;;;20.85;12.70;;;;;;;7.67;100.00;101939.50;5006384;28;20086;-81
2021/10/07 06:03:52;;;;;;;27.67;12.90;;;;;;;7.72;100.00;101942.84;5011235;28;20054;-80
2021/10/07 06:06:20;;;;;;;28.35;13.48;;;;;;;7.81;100.00;101945.25;5008728;28;20046;-84
2021/10/07 06:08:47;;;;;;;28.70;14.65;;;;;;;7.84;100.00;101947.78;5007397;28;20473;-80
2021/10/07 06:11:14;;;;;;;29.20;13.98;;;;;;;7.96;100.00;101950.06;5007777;28;20042;-80
2021/10/07 06:13:43;;;;;;;34.42;15.32;;;;;;;8.00;100.00;101959.56;5011474;28;20094;-84
2021/10/07 06:16:10;;;;;;;34.95;15.15;;;;;;;8.03;100.00;101962.13;5010647;28;20049;-80
2021/10/07 06:18:38;;;;;;;22.10;13.38;;;;;;;8.22;100.00;101961.63;5015595;28;20068;-79
2021/10/07 06:21:05;;;;;;;22.48;14.02;;;;;;;8.36;100.00;101976.09;5023375;28;20146;-81
2021/10/07 06:23:48;;;;;;;22.48;14.00;;;;;;;8.65;100.00;101963.06;5017997;28;20149;-81
2021/10/07 06:26:36;;;;;;;24.27;12.75;;;;;;;9.18;100.00;101971.91;5009169;28;20034;-85
2021/10/07 06:29:03;;;;;;;17.15;10.52;;;;;;;9.24;100.00;101973.50;5012667;28;20141;-83
2021/10/07 06:31:30;;;;;;;17.85;10.77;;;;;;;9.12;100.00;101975.59;4995120;28;20535;-80
2021/10/07 06:33:59;;;;;;;17.77;12.15;;;;;;;9.15;100.00;101974.66;4994891;28;20059;-81
2021/10/07 06:36:27;;;;;;;18.02;12.20;;;;;;;9.19;100.00;101991.19;5008386;28;20080;-83
2021/10/07 06:38:54;;;;;;;19.00;11.00;;;;;;;9.28;100.00;101991.75;4991552;28;20144;-80
2021/10/07 06:41:22;;;;;;;24.60;10.35;;;;;;;9.38;100.00;101992.31;5003462;28;20057;-76
2021/10/07 06:43:50;;;;;;;16.83;10.27;;;;;;;9.52;100.00;101995.34;5003441;28;20499;-80
2021/10/07 06:46:17;;;;;;;16.38;10.88;;;;;;;9.69;100.00;101997.44;5004626;28;20199;-81
2021/10/07 06:48:45;;;;;;;15.13;10.57;;;;;;;9.69;100.00;102004.47;4989236;28;20072;-79
2021/10/07 06:51:14;;;;;;;18.00;10.05;;;;;;;9.56;100.00;101994.34;5008332;28;20566;-78
2021/10/07 06:53:41;;;;;;;18.48;10.50;;;;;;;9.66;100.00;102000.16;5007141;28;20050;-83
2021/10/07 06:56:09;;;;;;;17.73;11.10;;;;;;;9.62;100.00;102006.41;5003238;28;20077;-81
2021/10/07 06:58:36;;;;;;;23.90;12.00;;;;;;;9.77;100.00;102002.41;5003759;28;20046;-77
2021/10/07 07:01:04;;;;;;;21.35;10.85;;;;;;;11.04;100.00;102001.34;5010261;28;20076;-81
2021/10/07 07:03:32;;;;;;;16.58;8.95;;;;;;;11.87;100.00;102000.66;5009881;28;20060;-77
2021/10/07 07:05:59;;;;;;;15.70;8.68;;;;;;;12.06;99.46;101996.28;4975892;28;20069;-79
2021/10/07 07:08:27;;;;;;;18.70;8.70;;;;;;;11.63;100.00;102008.63;5008327;28;20050;-80
2021/10/07 07:10:55;;;;;;;20.58;9.18;;;;;;;12.20;100.00;102008.03;5004322;28;20060;-79
2021/10/07 07:13:23;;;;;;;18.27;7.80;;;;;;;12.77;95.53;102003.72;5010771;28;20053;-84
2021/10/07 07:15:51;;;;;;;18.45;8.25;;;;;;;12.88;92.15;102012.88;4977925;28;20084;-81
2021/10/07 07:18:18;;;;;;;19.75;7.65;;;;;;;14.43;85.25;102013.13;5011557;28;20044;-82
2021/10/07 07:20:46;;;;;;;13.27;7.35;;;;;;;16.22;76.84;102011.00;4998731;28;20058;-83
2021/10/07 07:23:14;;;;;;;17.55;6.25;;;;;;;19.12;62.71;102001.41;5006621;28;20441;-84
2021/10/07 07:25:41;;;;;;;14.93;5.43;;;;;;;20.64;55.53;102006.75;5004591;28;20081;-85
2021/10/07 07:28:09;;;;;;;15.32;6.57;;;;;;;23.02;47.71;102003.66;5006814;28;20175;-85
2021/10/07 07:30:37;;;;;;;12.00;5.90;;;;;;;23.72;43.76;102009.81;5006395;28;20064;-86
2021/10/07 07:33:04;;;;;;;15.45;5.78;;;;;;;23.93;42.19;102013.19;5007873;28;20049;-86
2021/10/07 07:35:32;;;;;;;14.30;6.25;;;;;;;24.40;40.85;102013.22;5004960;28;20069;-80
2021/10/07 07:38:03;;;;;;;21.90;7.07;;;;;;;24.65;39.81;102017.09;5009020;28;20045;-84
2021/10/07 07:40:32;;;;;;;13.93;6.65;;;;;;;25.15;39.27;102019.41;4988132;28;20079;-84
2021/10/07 07:43:00;;;;;;;12.50;6.20;;;;;;;24.57;39.80;102027.75;5007614;28;20057;-82
2021/10/07 07:45:27;;;;;;;17.42;6.32;;;;;;;25.12;38.75;102033.19;4999764;28;20077;-82
2021/10/07 07:47:57;;;;;;;19.35;6.88;;;;;;;24.71;39.59;102037.19;5006022;28;20054;-86
2021/10/07 07:50:27;;;;;;;16.33;6.38;;;;;;;25.02;39.75;102032.38;5004643;28;20048;-80
2021/10/07 07:52:58;;;;;;;16.20;7.32;;;;;;;24.70;39.36;102036.34;5011124;28;20057;-85
2021/10/07 07:55:26;;;;;;;13.85;6.70;;;;;;;24.20;40.08;102050.09;5003005;28;20064;-81
2021/10/07 07:57:53;;;;;;;13.30;6.85;;;;;;;24.22;40.03;102048.09;4995074;28;20062;-84
2021/10/07 08:00:21;;;;;;;16.90;7.57;;;;;;;23.98;40.16;102042.34;5007162;28;20097;-79
2021/10/07 08:02:48;;;;;;;11.65;6.75;;;;;;;23.74;41.41;102049.00;5005570;28;20046;-84
2021/10/07 08:05:16;;;;;;;15.43;7.00;;;;;;;25.75;38.05;102043.06;5005775;28;20058;-81
2021/10/07 08:07:44;;;;;;;10.48;6.57;;;;;;;25.61;37.63;102041.78;5012953;28;20263;-81
2021/10/07 08:10:12;;;;;;;18.00;7.53;;;;;;;26.27;36.32;102048.56;5005040;28;20054;-81
2021/10/07 08:12:39;;;;;;;21.25;6.63;;;;;;;25.56;37.52;102044.09;5007971;28;20061;-78
2021/10/07 08:15:08;;;;;;;15.40;6.30;;;;;;;25.18;38.06;102045.22;5006195;28;20064;-80
2021/10/07 08:17:38;;;;;;;9.70;6.15;;;;;;;26.95;34.81;102055.88;5011068;28;20076;-83
2021/10/07 08:20:07;;;;;;;13.23;6.90;;;;;;;25.20;37.58;102056.69;5011061;28;20433;-84
2021/10/07 08:22:36;;;;;;;18.00;6.70;;;;;;;26.91;34.65;102057.22;5005412;28;20046;-83
2021/10/07 08:25:04;;;;;;;12.88;6.13;;;;;;;25.49;36.59;102064.59;4984629;28;20053;-83
2021/10/07 08:27:31;;;;;;;10.52;5.95;;;;;;;27.57;33.67;102056.41;4987851;28;20042;-79
2021/10/07 08:29:59;;;;;;;10.15;5.97;;;;;;;27.99;32.49;102064.41;5007366;28;20068;-83
2021/10/07 08:32:26;;;;;;;7.43;4.60;;;;;;;26.89;33.31;102064.66;5003942;28;20057;-84
2021/10/07 08:34:53;;;;;;;6.07;3.47;;;;;;;26.10;33.57;102058.41;4996006;28;20066;-81
2021/10/07 08:37:21;;;;;;;9.15;3.75;;;;;;;26.00;34.33;102060.34;4999586;28;20054;-83
2021/10/07 08:39:48;;;;;;;13.35;4.40;;;;;;;25.35;35.59;102062.41;5011173;28;20551;-83
2021/10/07 08:42:16;;;;;;;5.78;3.97;;;;;;;27.17;33.16;102066.13;5010546;28;20487;-84
2021/10/07 08:44:44;;;;;;;11.38;4.53;;;;;;;27.84;32.10;102066.09;5010081;28;20054;-85
2021/10/07 08:47:12;;;;;;;8.15;3.85;;;;;;;26.99;33.01;102074.31;4987843;28;20049;-80
2021/10/07 08:49:42;;;;;;;9.43;3.95;;;;;;;27.37;32.35;102065.84;5005955;28;20363;-81
2021/10/07 08:52:09;;;;;;;9.57;4.63;;;;;;;28.37;31.25;102070.16;5008834;28;20046;-79
2021/10/07 08:54:37;;;;;;;14.38;4.97;;;;;;;28.27;31.22;102064.03;5001709;28;20490;-81
2021/10/07 08:57:05;;;;;;;10.77;4.22;;;;;;;27.42;32.17;102077.88;5006470;28;20383;-79
2021/10/07 08:59:35;;;;;;;10.45;5.07;;;;;;;27.57;31.86;102082.63;5006481;28;20058;-79
2021/10/07 09:02:07;;;;;;;12.88;5.45;;;;;;;26.03;34.33;102087.03;5006786;28;20064;-80
2021/10/07 09:04:37;;;;;;;20.73;6.05;;;;;;;25.81;35.17;102091.06;5002176;28;20084;-82
2021/10/07 09:07:05;;;;;;;13.25;4.90;;;;;;;26.16;34.40;102089.31;5006228;28;20417;-80
2021/10/07 09:09:34;;;;;;;13.75;4.93;;;;;;;26.38;33.70;102096.91;5005981;28;20171;-82
2021/10/07 09:12:05;;;;;;;10.05;4.20;;;;;;;26.53;33.66;102099.91;5012115;28;20720;-79
2021/10/07 09:14:39;;;;;;;10.07;4.57;;;;;;;25.52;35.45;102097.47;4998039;28;20053;-86
2021/10/07 09:17:08;;;;;;;10.80;4.30;;;;;;;24.96;36.60;102097.63;5013065;28;20049;-83
2021/10/07 09:19:40;;;;;;;12.90;4.28;;;;;;;23.66;38.39;102097.25;5007916;28;20060;-84
2021/10/07 09:22:18;;;;;;;8.02;3.75;;;;;;;21.65;42.99;102104.84;5011885;28;20045;-80
2021/10/07 09:24:53;;;;;;;16.25;4.85;;;;;;;19.63;47.42;102105.41;5013909;28;20073;-83
2021/10/07 09:27:21;;;;;;;;;;;;;;;18.17;52.96;102109.41;5014363;28;20405;-84
2021/10/07 09:29:53;;;;;;;9.15;4.75;;;;;;;17.63;56.77;102103.22;5008299;28;19943;-83
2021/10/07 09:32:35;;;;;;;13.45;4.10;;;;;;;16.99;57.80;102102.03;5012181;28;20464;-81
2021/10/07 09:35:05;;;;;;;8.82;4.30;;;;;;;16.67;59.69;102105.69;5007084;28;20056;-79
2021/10/07 09:37:42;;;;;;;11.50;4.55;;;;;;;16.33;61.21;102101.53;5011781;28;20042;-82
2021/10/07 09:40:17;;;;;;;8.88;3.47;;;;;;;16.35;61.27;102101.47;5005104;28;20473;-80
2021/10/07 09:42:49;;;;;;;11.38;4.75;;;;;;;16.51;61.01;102101.38;5003088;28;20787;-83
2021/10/07 09:45:28;;;;;;;10.90;4.10;;;;;;;16.36;61.67;102103.16;4979708;28;20046;-80
2021/10/07 09:48:02;;;;;;;11.80;4.15;;;;;;;16.46;62.79;102097.19;5016875;28;20056;-83
2021/10/07 09:50:41;;;;;;;8.00;4.10;;;;;;;16.52;61.78;102101.28;5002579;28;20117;-83
2021/10/07 09:53:16;;;;;;;10.93;4.78;;;;;;;16.36;62.28;102106.69;4997158;28;20058;-83
2021/10/07 09:55:45;;;;;;;10.10;4.03;;;;;;;16.29;62.52;102105.31;5003851;28;20053;-83
2021/10/07 09:58:24;;;;;;;7.68;4.32;;;;;;;16.32;63.64;102099.84;5010457;28;20095;-83
2021/10/07 10:00:59;;;;;;;8.77;3.63;;;;;;;16.30;63.36;102098.19;5017054;28;20387;-83
2021/10/07 10:03:28;;;;;;;7.90;4.05;;;;;;;16.08;63.17;102098.63;5016739;28;20049;-81
2021/10/07 10:06:02;;;;;;;11.13;3.97;;;;;;;16.29;63.17;102097.34;5011590;28;20168;-79
2021/10/07 10:08:30;;;;;;;9.50;3.45;;;;;;;16.29;62.74;102101.81;5003996;28;20535;-81
2021/10/07 10:10:58;;;;;;;7.85;3.67;;;;;;;16.26;62.22;102102.00;4996416;28;20160;-79
2021/10/07 10:13:26;;;;;;;12.63;3.70;;;;;;;16.32;63.18;102096.31;5010609;28;20050;-81
2021/10/07 10:15:53;;;;;;;7.30;3.85;;;;;;;16.18;64.26;102100.66;5005874;28;20121;-80
2021/10/07 10:18:21;;;;;;;9.45;3.40;;;;;;;16.22;62.90;102097.81;5011613;28;20689;-80
2021/10/07 10:20:53;;;;;;;10.98;3.47;;;;;;;16.39;61.67;102102.97;5014300;28;20054;-81
2021/10/07 10:23:23;;;;;;;6.80;3.28;;;;;;;16.31;61.50;102098.13;5014415;28;20038;-80
2021/10/07 10:25:50;;;;;;;8.40;3.28;;;;;;;16.31;61.98;102099.94;5011985;28;20053;-81
2021/10/07 10:28:31;;;;;;;8.48;3.00;;;;;;;16.29;62.31;102104.47;5012544;28;20548;-85
2021/10/07 10:31:04;;;;;;;5.03;2.92;;;;;;;16.25;60.76;102108.25;5009798;28;20076;-81
2021/10/07 10:33:34;;;;;;;5.07;2.88;;;;;;;16.09;62.21;102101.19;5008922;28;20098;-81
2021/10/07 10:36:24;;;;;;;8.82;3.58;;;;;;;16.26;62.02;102105.53;5000094;28;20084;-82
2021/10/07 10:39:18;;;;;;;9.52;3.47;;;;;;;16.31;61.62;102107.91;5005715;28;20562;-85
2021/10/07 10:41:51;;;;;;;7.90;2.63;;;;;;;16.27;60.53;102114.34;4983449;28;20365;-82
2021/10/07 10:44:27;;;;;;;6.70;2.75;;;;;;;16.23;60.67;102108.34;5011779;28;20049;-84
2021/10/07 10:47:14;;;;;;;11.55;3.25;;;;;;;16.31;60.56;102110.56;5031143;28;20038;-83
2021/10/07 10:49:42;;;;;;;12.45;4.40;;;;;;;16.40;61.15;102112.66;5004621;28;20472;-79
2021/10/07 10:52:19;;;;;;;10.55;5.15;;;;;;;16.49;61.01;102111.28;5014672;28;20052;-80
2021/10/07 10:55:06;;;;;;;5.60;2.78;;;;;;;16.38;61.04;102114.53;4997250;28;20057;-80
2021/10/07 10:57:59;;;;;;;7.88;2.65;;;;;;;16.53;59.50;102118.97;5017886;28;20065;-78
2021/10/07 11:00:37;;;;;;;9.30;3.13;;;;;;;16.46;59.55;102121.13;5002943;28;20054;-82
2021/10/07 11:03:07;;;;;;;6.65;2.17;;;;;;;16.45;59.48;102124.72;5014282;28;20056;-83
2021/10/07 11:05:41;;;;;;;5.05;2.28;;;;;;;16.63;58.21;102127.25;5008952;28;20052;-79
2021/10/07 11:08:09;;;;;;;5.15;2.40;;;;;;;16.54;58.07;102126.00;5013349;28;20049;-82
2021/10/07 11:10:58;;;;;;;7.82;3.25;;;;;;;16.49;57.86;102125.41;5010737;28;20057;-82
2021/10/07 11:13:29;;;;;;;5.57;2.30;;;;;;;16.48;57.74;102126.38;5013770;28;20047;-81
2021/10/07 11:16:00;;;;;;;7.78;2.15;;;;;;;16.34;58.51;102115.69;5008756;28;20357;-80
2021/10/07 11:18:35;;;;;;;4.25;2.30;;;;;;;16.49;57.79;102120.09;5019906;28;20063;-84
2021/10/07 11:21:05;;;;;;;5.20;2.75;;;;;;;16.49;57.35;102122.75;5006167;28;20046;-83
2021/10/07 11:23:35;;;;;;;8.07;2.50;;;;;;;16.41;57.83;102123.19;5011726;28;20068;-85
2021/10/07 11:26:03;;;;;;;8.25;2.55;;;;;;;16.39;57.90;102116.25;5009602;28;20064;-77
2021/10/07 11:28:32;;;;;;;6.93;2.95;;;;;;;16.36;59.53;102119.13;5025616;28;20643;-82